Time;durP1;ratioP1;P1;durP2;ratioP2;P2;SDS_P1;SDS_P2;PMS_P1;PMS_P2;Temp;Humidity;BMP_temperature;BMP_pressure;BME280_temperature;BME280_humidity;BME280_pressure;Samples;Min_cycle;Max_cycle;Signal;HPM_P1;HPM_P2
2022/11/21 00:01:40;;;;;;;58.10;39.22;;;21.70;40.40;;;;;;7718713;22;85749;-59
2022/11/21 00:04:41;;;;;;;60.22;39.08;;;21.80;40.30;;;;;;7750460;22;82837;-58
2022/11/21 00:07:41;;;;;;;59.63;39.28;;;21.80;40.20;;;;;;7750024;22;82567;-59
2022/11/21 00:10:42;;;;;;;55.67;37.67;;;21.70;40.10;;;;;;7746746;22;83635;-59
2022/11/21 00:13:42;;;;;;;57.88;37.85;;;21.70;40.10;;;;;;7751474;22;82928;-58
2022/11/21 00:16:43;;;;;;;56.08;37.85;;;21.70;40.20;;;;;;7752208;22;83820;-59
2022/11/21 00:19:43;;;;;;;57.45;38.85;;;21.70;40.40;;;;;;7748974;22;83416;-60
2022/11/21 00:22:44;;;;;;;60.05;38.72;;;21.70;40.50;;;;;;7747826;22;84246;-60
2022/11/21 00:25:44;;;;;;;55.58;37.85;;;21.70;40.40;;;;;;7749899;22;83780;-57
2022/11/21 00:28:45;;;;;;;54.97;36.97;;;21.70;40.20;;;;;;7748796;22;83379;-59
2022/11/21 00:31:45;;;;;;;58.03;38.28;;;21.70;40.20;;;;;;7753943;22;85106;-59
2022/11/21 00:34:46;;;;;;;57.65;36.95;;;21.70;40.10;;;;;;7748905;22;83632;-59
2022/11/21 00:37:47;;;;;;;56.80;38.28;;;21.70;40.10;;;;;;7752058;22;83001;-59
2022/11/21 00:40:48;;;;;;;58.00;37.92;;;21.70;40.00;;;;;;7750938;22;83659;-67
2022/11/21 00:43:48;;;;;;;56.38;37.15;;;21.70;40.10;;;;;;7753030;22;83486;-67
2022/11/21 00:46:48;;;;;;;60.33;38.15;;;21.70;40.10;;;;;;7751592;22;83089;-66
2022/11/21 00:49:49;;;;;;;54.65;37.25;;;21.70;40.00;;;;;;7751672;22;83230;-68
2022/11/21 00:52:49;;;;;;;62.03;39.00;;;21.70;40.10;;;;;;7749968;22;85352;-67
2022/11/21 00:55:50;;;;;;;58.28;37.63;;;21.70;40.10;;;;;;7751778;22;82993;-67
2022/11/21 00:58:50;;;;;;;58.35;38.35;;;21.70;40.10;;;;;;7750659;22;83986;-70
2022/11/21 01:01:51;;;;;;;57.08;35.92;;;21.70;40.10;;;;;;7724225;22;83942;-68
2022/11/21 01:04:51;;;;;;;56.58;37.72;;;21.70;40.10;;;;;;7754056;22;83472;-69
2022/11/21 01:07:52;;;;;;;53.22;35.92;;;21.70;40.20;;;;;;7750674;22;84075;-67
2022/11/21 01:10:52;;;;;;;54.00;35.65;;;21.70;40.20;;;;;;7751781;22;83787;-68
2022/11/21 01:13:53;;;;;;;54.95;36.83;;;21.70;40.30;;;;;;7750817;22;83542;-68
2022/11/21 01:16:54;;;;;;;53.65;34.90;;;21.70;40.20;;;;;;7751203;22;83135;-68
2022/11/21 01:19:54;;;;;;;54.70;36.80;;;21.70;40.20;;;;;;7752767;22;83253;-58
2022/11/21 01:22:55;;;;;;;51.40;34.25;;;21.70;40.10;;;;;;7750488;22;83679;-57
2022/11/21 01:25:55;;;;;;;55.90;36.05;;;21.70;40.20;;;;;;7751571;22;83059;-57
2022/11/21 01:28:56;;;;;;;46.72;32.50;;;21.70;40.10;;;;;;7753408;22;83142;-58
2022/11/21 01:31:56;;;;;;;47.60;32.45;;;21.70;40.10;;;;;;7750536;22;83879;-58
2022/11/21 01:34:56;;;;;;;51.45;32.47;;;21.70;40.10;;;;;;7751490;22;83201;-58
2022/11/21 01:37:57;;;;;;;46.33;31.88;;;21.70;40.00;;;;;;7751622;22;83587;-59
2022/11/21 01:40:57;;;;;;;51.50;33.20;;;21.70;40.20;;;;;;7751891;22;84161;-59
2022/11/21 01:43:58;;;;;;;45.50;31.27;;;21.70;40.10;;;;;;7751214;22;83156;-59
2022/11/21 01:46:58;;;;;;;45.22;30.20;;;21.70;40.20;;;;;;7750434;22;84007;-58
2022/11/21 01:49:59;;;;;;;46.97;31.38;;;21.70;40.10;;;;;;7747499;22;83425;-58
2022/11/21 01:52:59;;;;;;;43.25;30.58;;;21.70;40.00;;;;;;7747436;22;83409;-58
2022/11/21 01:56:00;;;;;;;46.70;31.20;;;21.60;40.10;;;;;;7747354;22;83622;-67
2022/11/21 01:59:00;;;;;;;45.63;30.02;;;21.60;40.00;;;;;;7749158;22;84248;-67
2022/11/21 02:02:01;;;;;;;43.97;30.45;;;21.70;40.10;;;;;;7750183;22;83409;-67
2022/11/21 02:05:01;;;;;;;43.33;29.65;;;21.60;39.90;;;;;;7750850;22;83935;-69
2022/11/21 02:08:02;;;;;;;41.75;28.90;;;21.70;40.00;;;;;;7751739;22;84071;-68
2022/11/21 02:11:02;;;;;;;42.25;28.05;;;21.70;40.00;;;;;;7750680;22;82610;-67
2022/11/21 02:14:02;;;;;;;41.38;27.90;;;21.60;40.00;;;;;;7750430;22;84142;-59
2022/11/21 02:17:03;;;;;;;40.92;27.05;;;21.70;40.00;;;;;;7750487;22;83361;-58
2022/11/21 02:20:03;;;;;;;42.85;26.77;;;21.70;40.00;;;;;;7750991;22;83064;-58
2022/11/21 02:23:04;;;;;;;43.00;28.35;;;21.60;39.90;;;;;;7749501;22;83276;-58
2022/11/21 02:26:04;;;;;;;37.28;25.75;;;21.70;40.10;;;;;;7746874;22;84337;-58
2022/11/21 02:29:05;;;;;;;41.40;27.13;;;21.70;39.90;;;;;;7750816;22;83536;-58
2022/11/21 02:32:05;;;;;;;37.75;26.27;;;21.70;39.90;;;;;;7750297;22;83104;-69
2022/11/21 02:35:06;;;;;;;41.03;26.55;;;21.60;39.80;;;;;;7721448;22;84053;-68
2022/11/21 02:38:06;;;;;;;39.45;25.83;;;21.60;39.90;;;;;;7753547;22;83086;-67
2022/11/21 02:41:07;;;;;;;34.33;25.17;;;21.60;39.90;;;;;;7749470;22;83440;-66
2022/11/21 02:44:07;;;;;;;41.17;26.38;;;21.60;39.70;;;;;;7746880;22;83657;-68
2022/11/21 02:47:08;;;;;;;38.00;25.92;;;21.60;39.70;;;;;;7748260;22;83326;-68
2022/11/21 02:50:08;;;;;;;39.95;26.10;;;21.60;39.60;;;;;;7751911;22;83310;-56
2022/11/21 02:53:09;;;;;;;38.97;25.65;;;21.60;39.60;;;;;;7747082;22;82733;-57
2022/11/21 02:56:09;;;;;;;36.72;23.77;;;21.60;39.50;;;;;;7752265;22;82646;-58
2022/11/21 02:59:10;;;;;;;37.88;25.35;;;21.60;39.60;;;;;;7748860;22;83081;-56
2022/11/21 03:02:10;;;;;;;40.70;27.48;;;21.60;39.50;;;;;;7750895;22;82913;-57
2022/11/21 03:05:11;;;;;;;40.03;26.50;;;21.60;39.40;;;;;;7748242;22;88688;-59
2022/11/21 03:08:11;;;;;;;40.13;26.55;;;21.60;39.30;;;;;;7749361;22;83864;-68
2022/11/21 03:11:11;;;;;;;40.58;26.63;;;21.60;39.20;;;;;;7722429;22;83657;-69
2022/11/21 03:14:12;;;;;;;40.78;26.35;;;21.60;39.20;;;;;;7748478;22;83948;-69
2022/11/21 03:17:13;;;;;;;40.28;25.98;;;21.60;39.20;;;;;;7750999;22;82952;-69
2022/11/21 03:20:13;;;;;;;37.75;24.90;;;21.60;39.20;;;;;;7722365;22;85609;-70
2022/11/21 03:23:14;;;;;;;38.10;25.02;;;21.60;39.10;;;;;;7749575;22;83120;-68
2022/11/21 03:26:14;;;;;;;36.67;24.80;;;21.60;39.10;;;;;;7748446;22;83687;-70
2022/11/21 03:29:14;;;;;;;38.53;24.92;;;21.60;39.00;;;;;;7751753;22;83152;-67
2022/11/21 03:32:15;;;;;;;38.60;24.88;;;21.60;39.00;;;;;;7748763;22;83790;-68
2022/11/21 03:35:15;;;;;;;38.15;24.88;;;21.60;39.00;;;;;;7751318;22;82831;-68
2022/11/21 03:38:16;;;;;;;39.17;26.15;;;21.60;39.10;;;;;;7750366;22;83274;-66
2022/11/21 03:41:29;;;;;;;38.90;26.20;;;21.50;38.90;;;;;;7752759;22;83416;-67
2022/11/21 03:44:29;;;;;;;36.60;25.30;;;21.50;39.20;;;;;;7751718;22;82921;-67
2022/11/21 03:47:30;;;;;;;40.13;25.55;;;21.50;38.80;;;;;;7720365;22;83541;-69
2022/11/21 03:50:30;;;;;;;38.15;25.85;;;21.50;38.80;;;;;;7750245;22;83817;-68
2022/11/21 03:53:31;;;;;;;40.22;27.35;;;21.50;38.80;;;;;;7750289;22;82920;-69
2022/11/21 03:56:31;;;;;;;42.70;26.73;;;21.50;38.70;;;;;;7751959;22;82978;-68
2022/11/21 03:59:32;;;;;;;39.70;26.77;;;21.50;38.50;;;;;;7751240;22;83042;-68
2022/11/21 04:02:32;;;;;;;45.80;28.45;;;21.50;38.50;;;;;;7751089;22;83124;-63
2022/11/21 04:05:33;;;;;;;44.85;27.88;;;21.50;38.40;;;;;;7750623;22;83358;-63
2022/11/21 04:08:33;;;;;;;40.30;27.35;;;21.50;39.20;;;;;;7753436;22;83901;-62
2022/11/21 04:11:34;;;;;;;42.38;28.00;;;21.50;38.60;;;;;;7751079;22;83158;-61
2022/11/21 04:14:34;;;;;;;41.33;28.73;;;21.50;39.20;;;;;;7751357;22;83372;-64
2022/11/21 04:17:35;;;;;;;47.00;30.58;;;21.50;38.70;;;;;;7748906;22;83173;-62
2022/11/21 04:20:35;;;;;;;51.95;32.28;;;21.60;38.70;;;;;;7750764;22;83727;-68
2022/11/21 04:23:36;;;;;;;51.80;33.63;;;21.70;38.40;;;;;;7752695;22;82981;-63
2022/11/21 04:26:36;;;;;;;50.55;32.67;;;21.70;38.00;;;;;;7751144;22;83090;-63
2022/11/21 04:29:37;;;;;;;47.53;31.38;;;21.70;37.90;;;;;;7751031;22;83012;-63
2022/11/21 04:32:37;;;;;;;49.83;33.10;;;21.80;37.70;;;;;;7750778;22;83338;-64
2022/11/21 04:35:38;;;;;;;48.85;32.22;;;21.90;37.60;;;;;;7750026;22;83076;-65
2022/11/21 04:38:38;;;;;;;48.25;31.15;;;21.90;37.40;;;;;;7749847;22;83592;-66
2022/11/21 04:41:39;;;;;;;49.88;32.05;;;22.00;37.90;;;;;;7749286;22;83491;-58
2022/11/21 04:44:39;;;;;;;48.95;31.75;;;22.10;37.30;;;;;;7750080;22;82979;-58
2022/11/21 04:47:40;;;;;;;47.08;31.38;;;22.10;37.20;;;;;;7751839;22;83743;-54
2022/11/21 04:50:40;;;;;;;45.88;29.80;;;22.20;37.40;;;;;;7723511;22;84648;-59
2022/11/21 04:53:41;;;;;;;49.47;32.13;;;22.20;37.60;;;;;;7748908;22;83883;-57
2022/11/21 04:56:41;;;;;;;54.15;32.67;;;22.20;37.50;;;;;;7750314;22;83351;-53
2022/11/21 04:59:42;;;;;;;53.63;31.05;;;22.30;37.10;;;;;;7751830;22;82681;-56
2022/11/21 05:02:42;;;;;;;51.22;31.33;;;22.30;37.30;;;;;;7750772;22;83951;-58
2022/11/21 05:05:43;;;;;;;52.22;32.35;;;22.30;37.10;;;;;;7749845;22;83089;-59
2022/11/21 05:08:43;;;;;;;50.67;31.98;;;22.30;37.00;;;;;;7748710;22;83260;-59
2022/11/21 05:15:03;;;;;;;46.55;29.73;;;22.40;37.00;;;;;;7746535;22;83583;-58
2022/11/21 05:18:03;;;;;;;49.85;30.10;;;22.40;36.60;;;;;;7749024;22;82984;-53
2022/11/21 05:21:04;;;;;;;42.25;28.08;;;22.40;36.50;;;;;;7747226;22;83497;-59
2022/11/21 05:24:04;;;;;;;47.00;30.23;;;22.50;36.90;;;;;;7717460;22;86406;-58
2022/11/21 05:27:05;;;;;;;43.22;28.20;;;22.50;36.60;;;;;;7750304;22;83409;-58
2022/11/21 05:30:05;;;;;;;46.13;27.20;;;22.50;36.50;;;;;;7729693;22;83486;-56
2022/11/21 05:33:06;;;;;;;38.83;26.52;;;22.50;36.70;;;;;;7741969;22;83121;-57
2022/11/21 05:36:06;;;;;;;37.60;24.33;;;22.50;37.30;;;;;;7749487;22;83035;-66
2022/11/21 05:39:07;;;;;;;37.20;23.60;;;22.60;37.40;;;;;;7721802;22;83703;-64
2022/11/21 05:42:07;;;;;;;36.80;23.80;;;22.60;37.70;;;;;;7748970;22;83552;-65
2022/11/21 05:45:08;;;;;;;35.17;23.42;;;22.60;38.00;;;;;;7723750;22;85957;-66
2022/11/21 05:48:08;;;;;;;42.50;23.45;;;22.60;38.10;;;;;;7750254;22;84253;-64
2022/11/21 05:51:09;;;;;;;34.03;21.58;;;22.60;38.50;;;;;;7751417;22;83477;-66
2022/11/21 05:54:09;;;;;;;32.28;21.13;;;22.70;39.10;;;;;;7749267;22;84383;-69
2022/11/21 05:57:10;;;;;;;34.35;22.13;;;22.70;39.60;;;;;;7751693;22;83031;-67
2022/11/21 06:00:10;;;;;;;36.75;23.75;;;22.70;39.70;;;;;;7752503;22;84078;-70
2022/11/21 06:03:26;;;;;;;37.47;22.25;;;22.70;39.70;;;;;;7753032;22;83108;-62
2022/11/21 06:06:26;;;;;;;38.13;23.77;;;22.60;39.50;;;;;;7749897;22;82935;-60
2022/11/21 06:09:27;;;;;;;38.63;25.52;;;22.60;39.00;;;;;;7751601;22;83834;-60
2022/11/21 06:12:27;;;;;;;42.17;25.35;;;22.60;38.60;;;;;;7722852;22;84377;-53
2022/11/21 06:15:28;;;;;;;37.00;24.50;;;22.60;38.20;;;;;;7751504;22;84696;-52
2022/11/21 06:18:28;;;;;;;38.50;26.30;;;22.60;38.10;;;;;;7750246;22;82863;-52
2022/11/21 06:21:29;;;;;;;48.65;28.85;;;22.60;38.20;;;;;;7750204;22;83318;-49
2022/11/21 06:24:29;;;;;;;45.08;27.70;;;22.60;37.90;;;;;;7749373;22;83460;-54
2022/11/21 06:27:30;;;;;;;43.70;27.73;;;22.60;37.60;;;;;;7748807;22;82876;-54
2022/11/21 06:30:30;;;;;;;47.88;29.10;;;22.50;37.50;;;;;;7746427;22;83324;-67
2022/11/21 06:33:31;;;;;;;43.58;29.20;;;22.50;37.00;;;;;;7747188;22;82861;-66
2022/11/21 06:36:31;;;;;;;47.08;29.60;;;22.50;37.00;;;;;;7747538;22;83615;-67
2022/11/21 06:39:32;;;;;;;45.33;29.42;;;22.40;36.80;;;;;;7749967;22;83175;-68
2022/11/21 06:42:32;;;;;;;48.00;29.17;;;22.40;37.20;;;;;;7743133;22;84446;-67
2022/11/21 06:45:33;;;;;;;44.45;29.73;;;22.40;37.10;;;;;;7747100;22;82963;-67
2022/11/21 06:48:33;;;;;;;42.60;28.13;;;22.40;37.10;;;;;;7746279;22;83078;-63
2022/11/21 06:51:34;;;;;;;46.15;28.90;;;22.40;37.30;;;;;;7749095;22;83730;-64
2022/11/21 06:54:34;;;;;;;46.55;30.42;;;22.40;37.50;;;;;;7747218;22;84442;-62
2022/11/21 06:57:35;;;;;;;42.83;27.75;;;22.40;37.30;;;;;;7751889;22;83333;-62
2022/11/21 07:00:35;;;;;;;46.22;29.92;;;22.40;37.50;;;;;;7750272;22;84764;-63
2022/11/21 07:03:36;;;;;;;43.55;29.55;;;22.40;37.40;;;;;;7749502;22;83195;-63
2022/11/21 07:06:37;;;;;;;41.60;28.13;;;22.40;37.50;;;;;;7752565;22;84934;-64
2022/11/21 07:09:37;;;;;;;44.30;29.48;;;22.40;37.40;;;;;;7748093;22;83325;-60
2022/11/21 07:15:57;;;;;;;47.75;29.42;;;22.40;37.00;;;;;;7749421;22;83482;-64
2022/11/21 07:18:59;;;;;;;49.95;31.63;;;22.30;36.80;;;;;;7750646;22;82974;-64
2022/11/21 07:21:59;;;;;;;48.90;30.35;;;22.30;37.00;;;;;;7749654;22;83173;-64
2022/11/21 07:25:00;;;;;;;49.00;31.77;;;22.30;36.90;;;;;;7749880;22;83698;-63
2022/11/21 07:28:00;;;;;;;47.50;31.38;;;22.40;37.00;;;;;;7747419;22;83069;-64
2022/11/21 07:31:02;;;;;;;46.53;30.92;;;22.40;36.90;;;;;;7749665;22;83252;-63
2022/11/21 07:34:02;;;;;;;52.45;34.50;;;22.30;36.80;;;;;;7754577;22;83543;-63
2022/11/21 07:37:03;;;;;;;49.53;33.47;;;22.30;36.00;;;;;;7755625;22;82683;-64
2022/11/21 07:40:03;;;;;;;55.10;35.45;;;22.30;35.70;;;;;;7752246;22;84695;-64
2022/11/21 07:43:04;;;;;;;56.08;36.10;;;22.40;35.60;;;;;;7756048;22;83212;-57
2022/11/21 07:46:05;;;;;;;53.88;35.67;;;22.40;35.80;;;;;;7755855;22;85097;-56
2022/11/21 07:49:05;;;;;;;50.80;33.78;;;22.50;35.60;;;;;;7752720;22;83909;-56
2022/11/21 07:52:05;;;;;;;52.95;35.05;;;22.50;35.50;;;;;;7755680;22;83210;-57
2022/11/21 07:55:06;;;;;;;57.88;36.33;;;22.60;35.70;;;;;;7753361;22;83697;-58
2022/11/21 07:58:06;;;;;;;54.45;37.35;;;22.70;35.60;;;;;;7756239;22;83205;-57
2022/11/21 08:01:07;;;;;;;59.08;38.45;;;22.70;35.40;;;;;;7753571;22;83446;-55
2022/11/21 08:04:07;;;;;;;55.60;38.50;;;22.80;35.20;;;;;;7753657;22;83478;-54
2022/11/21 08:07:08;;;;;;;57.92;36.75;;;22.80;35.10;;;;;;7753153;22;83338;-52
2022/11/21 08:10:08;;;;;;;51.83;35.85;;;22.90;34.90;;;;;;7752333;22;83009;-50
2022/11/21 08:13:09;;;;;;;53.72;35.40;;;23.00;34.90;;;;;;7754946;22;83208;-52
2022/11/21 08:16:09;;;;;;;53.22;35.50;;;23.00;34.90;;;;;;7752437;22;82690;-52
2022/11/21 08:19:10;;;;;;;53.75;37.17;;;23.10;35.00;;;;;;7728260;22;83899;-52
2022/11/21 08:22:10;;;;;;;55.22;38.40;;;23.20;34.90;;;;;;7724776;22;83329;-65
2022/11/21 08:25:11;;;;;;;54.08;37.25;;;23.20;34.90;;;;;;7754782;22;83445;-64
2022/11/21 08:28:11;;;;;;;54.05;36.67;;;23.30;35.00;;;;;;7748051;22;84830;-62
2022/11/21 08:31:12;;;;;;;51.42;35.95;;;23.30;35.00;;;;;;7751229;22;84327;-64
2022/11/21 08:34:12;;;;;;;54.28;36.58;;;23.30;34.90;;;;;;7716101;22;83086;-62
2022/11/21 08:37:13;;;;;;;57.53;37.33;;;23.30;34.90;;;;;;7749711;22;83026;-63
2022/11/21 08:40:13;;;;;;;54.22;37.33;;;23.30;34.80;;;;;;7752959;22;83888;-68
2022/11/21 08:43:14;;;;;;;55.97;38.85;;;23.40;35.30;;;;;;7749537;22;83369;-70
2022/11/21 08:46:14;;;;;;;53.15;35.60;;;23.30;35.70;;;;;;7753861;22;83012;-66
2022/11/21 08:49:15;;;;;;;53.50;37.08;;;23.40;35.60;;;;;;7753099;22;82750;-65
2022/11/21 08:52:16;;;;;;;54.72;36.67;;;23.40;35.90;;;;;;7746549;22;83647;-66
2022/11/21 08:55:16;;;;;;;58.42;38.58;;;23.40;35.90;;;;;;7753621;22;83323;-64
2022/11/21 08:58:17;;;;;;;54.90;36.85;;;23.50;36.30;;;;;;7754194;22;83454;-61
2022/11/21 09:01:17;;;;;;;56.33;37.15;;;23.50;36.30;;;;;;7749941;22;83295;-59
2022/11/21 09:04:18;;;;;;;52.88;36.17;;;23.60;36.30;;;;;;7750493;22;82968;-62
2022/11/21 09:07:18;;;;;;;55.90;35.75;;;23.70;36.00;;;;;;7748587;22;84254;-66
2022/11/21 09:10:19;;;;;;;52.45;35.30;;;23.70;36.90;;;;;;7749077;22;82737;-65
2022/11/21 09:13:19;;;;;;;51.65;35.63;;;23.70;36.50;;;;;;7751209;22;82815;-63
2022/11/21 09:19:39;;;;;;;64.47;42.13;;;23.70;36.10;;;;;;7743679;22;84920;-74
2022/11/21 09:22:40;;;;;;;56.95;37.10;;;23.70;35.60;;;;;;7753461;22;82738;-76
2022/11/21 09:25:40;;;;;;;52.38;33.60;;;23.90;35.20;;;;;;7751410;22;83053;-76
2022/11/21 09:28:41;;;;;;;47.20;32.47;;;24.20;34.80;;;;;;7751968;22;82936;-69
2022/11/21 09:31:41;;;;;;;56.72;37.72;;;24.30;34.30;;;;;;7749847;22;82886;-58
2022/11/21 09:34:42;;;;;;;215.60;46.42;;;24.20;33.90;;;;;;7745781;22;83230;-59
2022/11/21 09:37:42;;;;;;;84.93;43.38;;;23.80;33.80;;;;;;7753075;22;83194;-60
2022/11/21 09:40:43;;;;;;;77.53;45.35;;;23.50;33.10;;;;;;7750205;22;83291;-67
2022/11/21 09:43:43;;;;;;;65.47;43.53;;;23.20;33.20;;;;;;7721939;22;84623;-66
2022/11/21 09:46:44;;;;;;;69.80;46.03;;;23.00;34.40;;;;;;7738783;22;84519;-63
2022/11/21 09:49:44;;;;;;;69.75;45.30;;;22.90;38.70;;;;;;7745510;22;83310;-58
2022/11/21 09:52:45;;;;;;;71.28;46.22;;;22.80;38.00;;;;;;7749038;22;83917;-64
2022/11/21 09:55:45;;;;;;;67.38;45.80;;;22.60;36.00;;;;;;7722403;22;84386;-62
2022/11/21 09:58:46;;;;;;;70.32;44.45;;;22.30;35.30;;;;;;7750082;22;83242;-63
2022/11/21 10:01:46;;;;;;;68.03;43.97;;;22.20;35.40;;;;;;7751615;22;83216;-65
2022/11/21 10:04:47;;;;;;;60.83;42.53;;;22.20;35.20;;;;;;7746013;22;83209;-64
2022/11/21 10:07:47;;;;;;;68.65;44.20;;;22.20;35.20;;;;;;7752501;22;83676;-62
2022/11/21 10:10:47;;;;;;;68.28;44.97;;;22.10;35.10;;;;;;7750280;22;84962;-61
2022/11/21 10:13:48;;;;;;;68.80;45.63;;;22.10;35.00;;;;;;7751255;22;83409;-59
2022/11/21 10:16:49;;;;;;;68.55;45.05;;;21.90;34.70;;;;;;7753163;22;83218;-59
2022/11/21 10:19:49;;;;;;;68.07;44.78;;;21.70;34.70;;;;;;7747019;22;84086;-60
2022/11/21 10:22:50;;;;;;;73.93;46.80;;;21.60;35.00;;;;;;7748637;22;84093;-62
2022/11/21 10:25:50;;;;;;;71.05;44.47;;;21.60;35.00;;;;;;7749281;22;83380;-62
2022/11/21 10:28:51;;;;;;;77.55;47.97;;;21.50;35.30;;;;;;7723303;22;84889;-60
2022/11/21 10:31:51;;;;;;;73.30;46.45;;;21.40;35.20;;;;;;7750747;22;83048;-64
2022/11/21 10:34:52;;;;;;;71.68;46.53;;;21.30;35.40;;;;;;7744582;22;84106;-64
2022/11/21 10:37:53;;;;;;;72.85;47.15;;;21.30;35.70;;;;;;7752905;22;83310;-65
2022/11/21 10:40:53;;;;;;;69.70;46.85;;;21.20;35.70;;;;;;7749684;22;84962;-65
2022/11/21 10:47:13;;;;;;;74.70;44.97;;;21.10;35.80;;;;;;7746017;22;87702;-66
2022/11/21 10:50:13;;;;;;;65.80;44.38;;;21.10;35.90;;;;;;7751927;22;82871;-66
2022/11/21 10:56:34;;;;;;;64.38;42.22;;;21.10;36.40;;;;;;7752641;22;83559;-63
2022/11/21 10:59:34;;;;;;;66.57;43.00;;;21.20;36.30;;;;;;7749489;22;84330;-63
2022/11/21 11:02:35;;;;;;;68.93;41.50;;;21.30;36.70;;;;;;7745250;22;82981;-65
2022/11/21 11:05:36;;;;;;;74.32;42.80;;;21.50;36.60;;;;;;7751675;22;82834;-61
2022/11/21 11:08:36;;;;;;;79.55;48.90;;;21.70;37.30;;;;;;7750275;22;83812;-62
2022/11/21 11:11:37;;;;;;;68.05;46.15;;;21.40;35.60;;;;;;7751600;22;83152;-62
2022/11/21 11:14:37;;;;;;;71.45;45.92;;;21.10;35.90;;;;;;7750318;22;82818;-61
2022/11/21 11:17:38;;;;;;;65.18;44.30;;;21.20;37.10;;;;;;7746264;22;82970;-61
2022/11/21 11:20:38;;;;;;;62.17;43.40;;;21.30;37.10;;;;;;7749602;22;84058;-58
2022/11/21 11:23:39;;;;;;;73.90;43.58;;;21.30;37.20;;;;;;7720025;22;83040;-59
2022/11/21 11:26:39;;;;;;;63.17;41.47;;;21.40;37.30;;;;;;7752749;22;83318;-58
2022/11/21 11:29:39;;;;;;;60.38;40.83;;;21.40;37.20;;;;;;7748346;22;83112;-58
2022/11/21 11:32:40;;;;;;;61.35;40.13;;;21.50;37.20;;;;;;7748445;22;84426;-58
2022/11/21 11:35:41;;;;;;;55.78;38.63;;;21.50;37.40;;;;;;7750227;22;83053;-58
2022/11/21 11:38:41;;;;;;;66.15;40.38;;;21.50;37.20;;;;;;7752552;22;84520;-59
2022/11/21 11:48:20;;;;;;;59.92;39.15;;;21.60;37.20;;;;;;7750578;22;83054;-61
2022/11/21 11:51:21;;;;;;;57.97;38.45;;;21.60;37.30;;;;;;7751169;22;82979;-60
2022/11/21 11:54:21;;;;;;;55.38;38.10;;;21.60;37.30;;;;;;7748982;22;83888;-60
2022/11/21 11:57:22;;;;;;;57.83;38.08;;;21.70;37.30;;;;;;7750206;22;84654;-61
2022/11/21 12:00:22;;;;;;;56.10;36.92;;;21.70;37.20;;;;;;7746387;22;83434;-62
2022/11/21 12:03:23;;;;;;;58.53;37.15;;;21.70;37.20;;;;;;7752370;22;83040;-59
2022/11/21 12:06:23;;;;;;;69.72;38.63;;;21.80;37.30;;;;;;7748214;22;83491;-63
2022/11/21 12:09:25;;;;;;;61.85;36.88;;;21.80;37.20;;;;;;7749672;22;82899;-63
2022/11/21 12:12:25;;;;;;;80.03;39.53;;;21.90;37.50;;;;;;7747712;22;83161;-63
2022/11/21 12:18:45;;;;;;;60.92;38.33;;;22.00;37.40;;;;;;7750270;22;83496;-65
2022/11/21 12:21:45;;;;;;;58.55;35.88;;;22.00;37.30;;;;;;7749672;22;85194;-66
2022/11/21 12:24:46;;;;;;;56.20;36.38;;;22.00;37.20;;;;;;7750415;22;83261;-66
2022/11/21 12:27:46;;;;;;;60.03;36.55;;;22.00;37.20;;;;;;7753299;22;83946;-68
2022/11/21 12:30:47;;;;;;;54.97;36.20;;;22.10;37.10;;;;;;7748609;22;83689;-65
2022/11/21 12:33:47;;;;;;;53.28;35.97;;;22.10;37.10;;;;;;7754688;22;83996;-70
2022/11/21 12:36:48;;;;;;;57.40;35.45;;;22.10;37.20;;;;;;7750392;22;83042;-67
2022/11/21 12:39:48;;;;;;;54.40;35.53;;;22.10;37.10;;;;;;7751953;22;83867;-63
2022/11/21 12:42:49;;;;;;;54.78;35.67;;;22.10;37.10;;;;;;7723652;22;83090;-66
2022/11/21 12:45:49;;;;;;;50.55;33.15;;;22.10;37.00;;;;;;7747542;22;82683;-66
2022/11/21 12:55:28;;;;;;;53.35;34.50;;;22.20;37.60;;;;;;7746249;22;83481;-62
2022/11/21 12:58:29;;;;;;;48.72;33.63;;;22.20;37.30;;;;;;7747355;22;83356;-62
2022/11/21 13:01:30;;;;;;;47.28;32.75;;;22.20;37.20;;;;;;7750002;22;83391;-60
2022/11/21 13:04:30;;;;;;;54.33;34.63;;;22.30;37.40;;;;;;7745506;22;83406;-63
2022/11/21 13:07:31;;;;;;;53.72;34.47;;;22.30;38.20;;;;;;7748929;22;83260;-59
2022/11/21 13:10:31;;;;;;;58.10;33.60;;;22.30;37.90;;;;;;7749242;22;84723;-59
2022/11/21 13:13:32;;;;;;;54.80;33.90;;;22.30;38.40;;;;;;7747927;22;84300;-62
2022/11/21 13:16:35;;;;;;;51.78;33.78;;;22.30;38.80;;;;;;7751583;22;83038;-61
2022/11/21 13:19:37;;;;;;;55.03;34.25;;;22.40;39.00;;;;;;7746288;22;84216;-61
2022/11/21 13:22:37;;;;;;;51.00;35.10;;;22.40;38.80;;;;;;7749521;22;83151;-61
2022/11/21 13:25:38;;;;;;;54.00;35.08;;;22.40;38.70;;;;;;7747635;22;83041;-63
2022/11/21 13:28:38;;;;;;;55.75;35.50;;;22.50;38.60;;;;;;7748896;22;84400;-62
2022/11/21 13:31:39;;;;;;;57.28;35.83;;;22.60;38.60;;;;;;7747350;22;83107;-62
2022/11/21 13:34:40;;;;;;;53.20;34.47;;;22.60;38.70;;;;;;7747921;22;83213;-61
2022/11/21 13:37:40;;;;;;;57.05;35.60;;;22.60;39.00;;;;;;7751346;22;83560;-62
2022/11/21 13:42:56;;;;;;;58.08;37.03;;;22.60;39.10;;;;;;7749068;22;83890;-64
2022/11/21 13:44:01;;;;;;;58.30;37.38;;;22.70;39.30;;;;;;7747548;22;82968;-60
2022/11/21 13:47:02;;;;;;;54.13;36.80;;;22.80;39.20;;;;;;7749728;22;83136;-58
2022/11/21 13:50:02;;;;;;;57.85;36.65;;;22.80;39.10;;;;;;7747411;22;83357;-57
2022/11/21 13:53:03;;;;;;;56.50;35.95;;;22.80;39.20;;;;;;7749725;22;82950;-59
2022/11/21 13:56:03;;;;;;;49.85;34.00;;;22.80;39.10;;;;;;7748554;22;83973;-59
2022/11/21 13:59:04;;;;;;;57.05;35.22;;;22.90;38.90;;;;;;7750935;22;83947;-58
2022/11/21 14:02:04;;;;;;;54.90;36.38;;;22.90;38.90;;;;;;7745204;22;83471;-58
2022/11/21 14:05:05;;;;;;;56.55;33.30;;;22.80;39.20;;;;;;7748115;22;84260;-58
2022/11/21 14:08:05;;;;;;;63.78;32.80;;;22.80;41.30;;;;;;7747365;22;83272;-58
2022/11/21 14:11:06;;;;;;;58.95;32.10;;;22.70;42.70;;;;;;7747803;22;83565;-65
2022/11/21 14:14:06;;;;;;;53.35;31.58;;;22.60;43.60;;;;;;7719339;22;84305;-64
2022/11/21 14:17:07;;;;;;;51.13;28.42;;;22.50;43.70;;;;;;7749170;22;82576;-64
2022/11/21 14:20:07;;;;;;;60.50;32.58;;;22.50;43.50;;;;;;7746987;22;83418;-65
2022/11/21 14:23:08;;;;;;;56.67;30.08;;;22.50;43.30;;;;;;7747777;22;83445;-63
2022/11/21 14:26:08;;;;;;;53.17;29.38;;;22.50;42.30;;;;;;7748990;22;83010;-63
2022/11/21 14:29:09;;;;;;;46.08;26.60;;;22.40;41.50;;;;;;7743886;22;83853;-63
2022/11/21 14:32:09;;;;;;;45.63;26.52;;;22.40;40.80;;;;;;7742058;22;83603;-66
2022/11/21 14:35:10;;;;;;;39.65;25.30;;;22.40;40.20;;;;;;7743875;22;84563;-62
2022/11/21 14:38:10;;;;;;;40.45;25.42;;;22.40;39.80;;;;;;7746460;22;83836;-62
2022/11/21 14:41:11;;;;;;;36.35;23.20;;;22.30;39.50;;;;;;7742970;22;86735;-61
2022/11/21 14:44:11;;;;;;;30.52;20.83;;;22.30;39.60;;;;;;7743533;22;84463;-64
2022/11/21 14:47:13;;;;;;;38.35;22.42;;;22.30;39.70;;;;;;7743531;22;83939;-66
2022/11/21 14:50:13;;;;;;;29.85;19.05;;;22.30;39.80;;;;;;7741199;22;83218;-67
2022/11/21 14:53:14;;;;;;;27.02;18.88;;;22.30;39.90;;;;;;7740738;22;83331;-66
2022/11/21 14:56:15;;;;;;;26.67;16.85;;;22.30;40.10;;;;;;7740229;22;83121;-66
2022/11/21 14:59:15;;;;;;;25.15;17.77;;;22.30;40.20;;;;;;7742099;22;83246;-67
2022/11/21 15:02:15;;;;;;;26.40;15.82;;;22.30;40.20;;;;;;7745962;22;86063;-64
2022/11/21 15:05:16;;;;;;;22.50;15.20;;;22.40;40.10;;;;;;7748360;22;83805;-63
2022/11/21 15:08:16;;;;;;;22.02;15.50;;;22.40;40.20;;;;;;7748496;22;83845;-65
2022/11/21 15:11:17;;;;;;;23.50;16.38;;;22.40;40.20;;;;;;7746264;22;83523;-61
2022/11/21 15:14:18;;;;;;;25.00;16.38;;;22.50;40.50;;;;;;7750976;22;84507;-68
2022/11/21 15:17:19;;;;;;;23.83;16.33;;;22.50;41.50;;;;;;7726168;22;84413;-65
2022/11/21 15:20:19;;;;;;;23.10;14.23;;;22.50;42.20;;;;;;7747479;22;83137;-65
2022/11/21 15:23:20;;;;;;;25.75;14.95;;;22.50;42.70;;;;;;7717799;22;86211;-64
2022/11/21 15:26:20;;;;;;;22.30;14.15;;;22.50;43.50;;;;;;7742020;22;84110;-63
2022/11/21 15:29:21;;;;;;;24.38;15.02;;;22.60;43.90;;;;;;7745844;22;84131;-64
2022/11/21 15:32:22;;;;;;;30.17;16.13;;;22.60;44.80;;;;;;7743046;22;83058;-67
2022/11/21 15:35:22;;;;;;;27.15;16.25;;;22.50;45.00;;;;;;7731515;22;82897;-63
2022/11/21 15:38:23;;;;;;;21.92;15.55;;;22.50;45.80;;;;;;7743861;22;84614;-63
2022/11/21 15:41:23;;;;;;;22.85;13.85;;;22.60;45.80;;;;;;7739221;22;83927;-57
2022/11/21 15:44:24;;;;;;;22.25;13.90;;;22.60;46.40;;;;;;7746043;22;83681;-57
2022/11/21 15:47:25;;;;;;;19.80;13.77;;;22.50;46.70;;;;;;7737050;22;83183;-55